createdAt,value
2022-11-29T00:01:39.475Z,5.70
2022-11-29T00:04:07.835Z,5.80
2022-11-29T00:06:37.452Z,5.80
2022-11-29T00:09:08.120Z,5.80
2022-11-29T00:11:55.734Z,5.90
2022-11-29T00:14:25.435Z,5.90
2022-11-29T00:16:55.610Z,6.00
2022-11-29T00:19:23.749Z,6.00
2022-11-29T00:21:53.162Z,5.90
2022-11-29T00:24:21.369Z,5.90
2022-11-29T00:26:49.776Z,5.90
2022-11-29T00:29:19.425Z,6.00
2022-11-29T00:31:48.111Z,6.00
2022-11-29T00:34:16.243Z,6.00
2022-11-29T00:36:44.418Z,6.00
2022-11-29T00:39:14.090Z,6.00
2022-11-29T00:41:42.176Z,6.10
2022-11-29T00:44:15.285Z,6.10
2022-11-29T00:46:46.572Z,6.00
2022-11-29T00:49:14.729Z,6.00
2022-11-29T00:51:42.693Z,6.00
2022-11-29T00:54:10.908Z,6.00
2022-11-29T00:56:40.735Z,6.00
2022-11-29T00:59:08.759Z,6.00
2022-11-29T01:01:36.910Z,6.10
2022-11-29T01:04:05.343Z,6.10
2022-11-29T01:06:33.387Z,6.10
2022-11-29T01:09:01.475Z,6.10
2022-11-29T01:11:29.620Z,6.10
2022-11-29T01:14:02.083Z,6.10
2022-11-29T01:16:31.930Z,6.10
2022-11-29T01:19:00.432Z,6.10
2022-11-29T01:21:28.724Z,6.10
2022-11-29T01:23:56.839Z,6.20
2022-11-29T01:26:27.618Z,6.20
2022-11-29T01:28:58.505Z,6.20
2022-11-29T01:31:30.407Z,6.20
2022-11-29T01:34:00.317Z,6.20
2022-11-29T01:36:29.012Z,6.30
2022-11-29T01:38:57.275Z,6.20
2022-11-29T01:41:27.344Z,6.20
2022-11-29T01:43:59.118Z,6.10
2022-11-29T01:46:30.161Z,6.10
2022-11-29T01:49:02.451Z,6.10
2022-11-29T01:51:31.328Z,6.20
2022-11-29T01:54:00.054Z,6.20
2022-11-29T01:56:29.931Z,6.20
2022-11-29T01:58:58.148Z,6.10
2022-11-29T02:01:28.287Z,6.10
2022-11-29T02:03:56.585Z,6.10
2022-11-29T02:06:25.014Z,6.00
2022-11-29T02:08:55.203Z,6.00
2022-11-29T02:11:57.602Z,6.00
2022-11-29T02:14:40.983Z,5.90
2022-11-29T02:17:20.804Z,5.90
2022-11-29T02:20:23.841Z,5.90
2022-11-29T02:22:57.514Z,5.90
2022-11-29T02:25:40.884Z,6.00
2022-11-29T02:28:45.513Z,6.10
2022-11-29T02:31:52.945Z,6.10
2022-11-29T02:34:38.876Z,6.10
2022-11-29T02:37:42.475Z,6.10
2022-11-29T02:40:29.737Z,5.90
2022-11-29T02:43:17.642Z,5.90
2022-11-29T02:45:59.649Z,5.90
2022-11-29T02:48:53.820Z,6.00
2022-11-29T02:51:28.722Z,6.10
2022-11-29T02:54:04.370Z,6.00
2022-11-29T02:56:39.302Z,5.90
2022-11-29T02:59:13.910Z,5.90
2022-11-29T03:01:50.225Z,5.90
2022-11-29T03:04:27.065Z,5.90
2022-11-29T03:07:04.664Z,6.00
2022-11-29T03:09:40.084Z,5.90
2022-11-29T03:12:19.766Z,5.80
2022-11-29T03:14:58.359Z,5.70
2022-11-29T03:17:43.043Z,5.70
2022-11-29T03:20:26.930Z,5.70
2022-11-29T03:23:15.523Z,5.80
2022-11-29T03:25:48.168Z,5.70
2022-11-29T03:28:20.165Z,5.60
2022-11-29T03:30:54.831Z,5.60
2022-11-29T03:33:29.378Z,5.60
2022-11-29T03:36:05.543Z,5.60
2022-11-29T03:38:41.077Z,5.60
2022-11-29T03:41:19.535Z,5.60
2022-11-29T03:43:54.124Z,5.60
2022-11-29T03:46:28.826Z,5.60
2022-11-29T03:49:03.388Z,5.60
2022-11-29T03:51:42.404Z,5.60
2022-11-29T03:54:17.553Z,5.60
2022-11-29T03:56:46.074Z,5.60
2022-11-29T03:59:30.393Z,5.50
2022-11-29T04:02:34.834Z,5.60
2022-11-29T04:05:35.603Z,5.70
2022-11-29T04:08:24.864Z,5.70
2022-11-29T04:11:22.185Z,5.60
2022-11-29T04:14:29.082Z,5.60
2022-11-29T04:17:39.743Z,5.60
2022-11-29T04:20:34.922Z,5.70
2022-11-29T04:23:33.553Z,5.80
2022-11-29T04:26:27.038Z,5.80
2022-11-29T04:29:23.169Z,5.70
2022-11-29T04:32:18.544Z,5.60
2022-11-29T04:35:07.907Z,5.50
2022-11-29T04:38:17.505Z,5.50
2022-11-29T04:41:19.810Z,5.50
2022-11-29T04:44:13.093Z,5.50
2022-11-29T04:46:58.901Z,5.50
2022-11-29T04:49:40.754Z,5.50
2022-11-29T04:52:25.409Z,5.50
2022-11-29T04:55:00.963Z,5.50
2022-11-29T04:57:36.432Z,5.50
2022-11-29T05:00:09.808Z,5.40
2022-11-29T05:02:47.242Z,5.40
2022-11-29T05:05:24.576Z,5.40
2022-11-29T05:08:02.495Z,5.40
2022-11-29T05:10:42.835Z,5.40
2022-11-29T05:13:22.069Z,5.40
2022-11-29T05:16:03.363Z,5.40
2022-11-29T05:18:49.777Z,5.40
2022-11-29T05:21:26.516Z,5.40
2022-11-29T05:24:03.887Z,5.40
2022-11-29T05:26:37.340Z,5.30
2022-11-29T05:29:12.894Z,5.30
2022-11-29T05:31:57.478Z,5.30
2022-11-29T05:35:09.090Z,5.30
2022-11-29T05:37:44.314Z,5.40
2022-11-29T05:40:37.389Z,5.40
2022-11-29T05:43:19.436Z,5.40
2022-11-29T05:45:56.581Z,5.40
2022-11-29T05:48:31.032Z,5.40
2022-11-29T05:51:11.122Z,5.50
2022-11-29T05:53:48.635Z,5.50
2022-11-29T05:56:25.633Z,5.40
2022-11-29T05:59:00.968Z,5.30
2022-11-29T06:01:35.894Z,5.40
2022-11-29T06:04:14.727Z,5.40
2022-11-29T06:06:48.051Z,5.40
2022-11-29T06:09:21.705Z,5.40
2022-11-29T06:11:54.635Z,5.40
2022-11-29T06:14:42.784Z,5.30
2022-11-29T06:17:39.283Z,5.40
2022-11-29T06:20:26.284Z,5.40
2022-11-29T06:23:09.510Z,5.50
2022-11-29T06:25:48.764Z,5.50
2022-11-29T06:28:33.453Z,5.50
2022-11-29T06:31:13.074Z,5.50
2022-11-29T06:33:49.326Z,5.50
2022-11-29T06:36:20.823Z,5.50
2022-11-29T06:38:49.341Z,5.40
2022-11-29T06:41:21.912Z,5.30
2022-11-29T06:43:50.742Z,5.30
2022-11-29T06:46:27.860Z,5.20
2022-11-29T06:49:04.500Z,5.20
2022-11-29T06:51:40.839Z,5.20
2022-11-29T06:54:20.409Z,5.20
2022-11-29T06:56:56.642Z,5.20
2022-11-29T06:59:38.616Z,5.20
2022-11-29T07:02:21.610Z,5.20
2022-11-29T07:05:08.194Z,5.20
2022-11-29T07:07:36.801Z,5.20
2022-11-29T07:10:13.446Z,5.20
2022-11-29T07:12:43.259Z,5.20
2022-11-29T07:15:16.295Z,5.10
2022-11-29T07:18:05.648Z,5.30
2022-11-29T07:20:41.580Z,5.30
2022-11-29T07:23:19.231Z,5.20
2022-11-29T07:25:56.360Z,5.30
2022-11-29T07:28:40.034Z,5.30
2022-11-29T07:31:13.598Z,5.30
2022-11-29T07:33:53.584Z,5.40
2022-11-29T07:36:30.663Z,5.40
2022-11-29T07:39:12.703Z,5.50
2022-11-29T07:41:48.649Z,5.50
2022-11-29T07:44:26.539Z,5.50
2022-11-29T07:46:54.593Z,5.50
2022-11-29T07:49:22.645Z,5.60
2022-11-29T07:51:52.180Z,5.70
2022-11-29T07:54:20.773Z,5.80
2022-11-29T07:56:49.512Z,5.80
2022-11-29T07:59:17.554Z,5.80
2022-11-29T08:01:47.143Z,5.80
2022-11-29T08:04:15.124Z,5.90
2022-11-29T08:06:43.212Z,5.90
2022-11-29T08:09:12.534Z,6.00
2022-11-29T08:11:40.634Z,6.00
2022-11-29T08:14:08.929Z,6.00
2022-11-29T08:16:37.471Z,5.80
2022-11-29T08:19:06.381Z,5.80
2022-11-29T08:21:34.339Z,5.80
2022-11-29T08:24:02.791Z,5.80
2022-11-29T08:26:32.193Z,6.00
2022-11-29T08:29:00.262Z,6.00
2022-11-29T08:31:28.290Z,5.90
2022-11-29T08:33:56.309Z,5.90
2022-11-29T08:36:24.451Z,5.80
2022-11-29T08:38:59.271Z,5.80
2022-11-29T08:41:33.046Z,5.80
2022-11-29T08:44:01.079Z,5.80
2022-11-29T08:46:49.043Z,5.70
2022-11-29T08:49:17.231Z,5.70
2022-11-29T08:51:45.361Z,5.70
2022-11-29T08:54:12.527Z,5.70
2022-11-29T08:59:29.913Z,5.90
2022-11-29T09:01:58.266Z,5.90
2022-11-29T09:04:26.388Z,5.90
2022-11-29T09:06:54.531Z,6.00
2022-11-29T09:09:22.577Z,6.10
2022-11-29T09:11:52.336Z,6.10
2022-11-29T09:14:22.394Z,6.20
2022-11-29T09:16:50.424Z,6.20
2022-11-29T09:19:18.648Z,6.40
2022-11-29T09:21:46.831Z,6.30
2022-11-29T09:24:14.998Z,6.40
2022-11-29T09:26:46.877Z,6.50
2022-11-29T09:29:17.427Z,6.50
2022-11-29T09:31:45.905Z,6.60
2022-11-29T09:34:14.132Z,6.60
2022-11-29T09:36:44.001Z,6.50
2022-11-29T09:39:12.413Z,6.60
2022-11-29T09:41:59.197Z,6.70
2022-11-29T09:44:38.724Z,6.50
2022-11-29T09:47:19.911Z,6.60
2022-11-29T09:50:02.056Z,6.40
2022-11-29T09:52:43.432Z,6.60
2022-11-29T09:55:28.949Z,6.60
2022-11-29T09:58:00.294Z,6.60
2022-11-29T10:00:31.636Z,6.40
2022-11-29T10:03:04.477Z,6.30
2022-11-29T10:05:39.202Z,6.40
2022-11-29T10:08:13.680Z,6.60
2022-11-29T10:10:45.641Z,6.60
2022-11-29T10:13:20.370Z,6.50
2022-11-29T10:15:54.300Z,6.60
2022-11-29T10:18:26.975Z,6.90
2022-11-29T10:20:58.600Z,6.90
2022-11-29T10:23:33.056Z,7.10
2022-11-29T10:26:01.117Z,7.30
2022-11-29T10:28:32.032Z,7.20
2022-11-29T10:31:07.308Z,7.30
2022-11-29T10:33:38.171Z,7.20
2022-11-29T10:36:16.311Z,7.00
2022-11-29T10:38:45.533Z,7.00
2022-11-29T10:41:21.534Z,7.20
2022-11-29T10:43:51.346Z,7.30
2022-11-29T10:46:28.617Z,7.40
2022-11-29T10:48:57.235Z,7.70
2022-11-29T10:51:25.380Z,7.40
2022-11-29T10:53:55.554Z,7.30
2022-11-29T10:56:29.519Z,7.10
2022-11-29T10:59:03.161Z,7.10
2022-11-29T11:01:34.735Z,7.30
2022-11-29T11:04:04.407Z,7.40
2022-11-29T11:06:46.738Z,7.20
2022-11-29T11:09:21.807Z,7.10
2022-11-29T11:11:54.478Z,7.10
2022-11-29T11:14:25.138Z,7.10
2022-11-29T11:16:54.746Z,7.10
2022-11-29T11:19:32.002Z,7.00
2022-11-29T11:22:01.728Z,7.20
2022-11-29T11:24:32.012Z,7.40
2022-11-29T11:27:01.313Z,7.60
2022-11-29T11:29:36.473Z,7.60
2022-11-29T11:32:08.460Z,7.60
2022-11-29T11:34:37.758Z,7.60
2022-11-29T11:37:22.532Z,7.70
2022-11-29T11:39:52.290Z,7.70
2022-11-29T11:42:39.084Z,7.60
2022-11-29T11:45:28.242Z,7.60
2022-11-29T11:48:00.455Z,7.50
2022-11-29T11:50:32.520Z,7.70
2022-11-29T11:53:03.268Z,7.70
2022-11-29T11:55:38.186Z,7.80
2022-11-29T11:58:18.674Z,8.00
2022-11-29T12:01:06.205Z,8.10
2022-11-29T12:03:45.694Z,8.30
2022-11-29T12:06:32.891Z,8.20
2022-11-29T12:09:07.442Z,8.50
2022-11-29T12:11:42.508Z,8.40
2022-11-29T12:14:19.794Z,8.50
2022-11-29T12:16:51.258Z,8.30
2022-11-29T12:19:24.854Z,7.80
2022-11-29T12:21:59.582Z,7.50
2022-11-29T12:24:33.894Z,7.90
2022-11-29T12:27:05.682Z,7.70
2022-11-29T12:29:35.371Z,7.90
2022-11-29T12:32:18.575Z,8.20
2022-11-29T12:35:02.437Z,8.10
2022-11-29T12:37:36.573Z,8.30
2022-11-29T12:40:11.449Z,8.50
2022-11-29T12:42:50.260Z,8.40
2022-11-29T12:45:35.614Z,8.20
2022-11-29T12:48:18.322Z,8.10
2022-11-29T12:50:55.135Z,8.10
2022-11-29T12:53:37.991Z,7.90
2022-11-29T12:56:15.554Z,8.20
2022-11-29T12:58:57.363Z,8.20
2022-11-29T13:01:36.473Z,8.00
2022-11-29T13:04:12.574Z,7.80
2022-11-29T13:06:50.021Z,7.90
2022-11-29T13:09:45.735Z,8.00
2022-11-29T13:12:19.903Z,7.60
2022-11-29T13:14:57.265Z,7.90
2022-11-29T13:17:33.933Z,7.80
2022-11-29T13:20:10.898Z,8.00
2022-11-29T13:22:48.320Z,7.80
2022-11-29T13:25:21.246Z,7.70
2022-11-29T13:27:54.813Z,7.50
2022-11-29T13:30:23.963Z,7.50
2022-11-29T13:32:58.855Z,7.50
2022-11-29T13:35:33.952Z,7.40
2022-11-29T13:38:11.444Z,7.30
2022-11-29T13:40:47.374Z,7.40
2022-11-29T13:43:24.333Z,7.50
2022-11-29T13:46:00.528Z,7.60
2022-11-29T13:48:36.098Z,7.70
2022-11-29T13:51:29.093Z,7.40
2022-11-29T13:54:01.280Z,7.60
2022-11-29T13:56:46.608Z,7.60
2022-11-29T13:59:21.903Z,7.20
2022-11-29T14:01:53.396Z,7.20
2022-11-29T14:04:28.986Z,7.10
2022-11-29T14:07:12.589Z,7.20
2022-11-29T14:09:46.576Z,7.20
2022-11-29T14:12:28.732Z,6.90
2022-11-29T14:15:01.157Z,7.10
2022-11-29T14:17:47.860Z,6.80
2022-11-29T14:20:52.321Z,6.80
2022-11-29T14:23:33.542Z,6.70
2022-11-29T14:26:30.550Z,6.50
2022-11-29T14:28:59.678Z,6.30
2022-11-29T14:31:53.018Z,6.20
2022-11-29T14:34:44.206Z,6.20
2022-11-29T14:37:31.889Z,6.30
2022-11-29T14:40:02.433Z,6.20
2022-11-29T14:42:32.770Z,6.20
2022-11-29T14:45:07.092Z,6.30
2022-11-29T14:47:38.740Z,6.30
2022-11-29T14:50:09.831Z,6.20
2022-11-29T14:52:40.605Z,6.00
2022-11-29T14:55:28.828Z,6.10
2022-11-29T14:58:22.974Z,6.00
2022-11-29T15:01:09.564Z,6.10
2022-11-29T15:03:48.769Z,6.10
2022-11-29T15:06:25.097Z,6.20
2022-11-29T15:09:00.640Z,6.30
2022-11-29T15:11:46.340Z,6.10
2022-11-29T15:14:25.006Z,6.10
2022-11-29T15:17:11.049Z,6.10
2022-11-29T15:19:59.825Z,6.10
2022-11-29T15:22:31.132Z,6.00
2022-11-29T15:25:03.056Z,6.00
2022-11-29T15:27:31.162Z,6.00
2022-11-29T15:30:18.522Z,6.00
2022-11-29T15:32:47.381Z,6.00
2022-11-29T15:35:18.850Z,5.90
2022-11-29T15:37:48.873Z,5.90
2022-11-29T15:40:19.152Z,5.70
2022-11-29T15:42:50.608Z,5.50
2022-11-29T15:45:27.482Z,5.70
2022-11-29T15:47:56.468Z,5.70
2022-11-29T15:50:26.792Z,5.80
2022-11-29T15:52:58.759Z,5.70
2022-11-29T15:55:27.883Z,5.70
2022-11-29T15:58:03.968Z,5.70
2022-11-29T16:00:38.455Z,5.60
2022-11-29T16:03:08.646Z,5.60
2022-11-29T16:05:39.959Z,5.60
2022-11-29T16:08:15.840Z,5.60
2022-11-29T16:10:47.442Z,5.40
2022-11-29T16:13:33.203Z,5.40
2022-11-29T16:16:14.276Z,5.30
2022-11-29T16:18:44.342Z,5.30
2022-11-29T16:21:28.859Z,5.30
2022-11-29T16:23:58.107Z,5.40
2022-11-29T16:26:30.126Z,5.40
2022-11-29T16:28:58.474Z,5.30
2022-11-29T16:31:38.657Z,5.20
2022-11-29T16:34:16.135Z,5.20
2022-11-29T16:36:44.192Z,5.30
2022-11-29T16:39:21.241Z,5.20
2022-11-29T16:42:06.665Z,5.30
2022-11-29T16:44:57.787Z,5.20
2022-11-29T16:47:29.410Z,5.10
2022-11-29T16:50:17.432Z,5.10
2022-11-29T16:52:45.833Z,5.00
2022-11-29T16:55:15.464Z,5.00
2022-11-29T16:57:44.624Z,5.00
2022-11-29T17:00:22.246Z,5.00
2022-11-29T17:02:52.292Z,5.00
2022-11-29T17:05:20.311Z,5.10
2022-11-29T17:07:48.937Z,5.10
2022-11-29T17:10:20.570Z,5.10
2022-11-29T17:12:48.772Z,4.90
2022-11-29T17:15:17.273Z,4.80
2022-11-29T17:17:45.637Z,4.80
2022-11-29T17:20:15.513Z,4.80
2022-11-29T17:22:43.908Z,4.80
2022-11-29T17:25:12.083Z,4.80
2022-11-29T17:27:40.126Z,4.80
2022-11-29T17:30:11.276Z,4.80
2022-11-29T17:32:39.362Z,4.70
2022-11-29T17:35:08.008Z,4.70
2022-11-29T17:37:37.354Z,4.80
2022-11-29T17:40:05.902Z,4.70
2022-11-29T17:42:33.959Z,4.80
2022-11-29T17:45:02.038Z,4.80
2022-11-29T17:47:30.132Z,4.90
2022-11-29T17:49:58.507Z,4.80
2022-11-29T17:52:26.469Z,4.80
2022-11-29T17:54:55.798Z,4.80
2022-11-29T17:57:23.929Z,4.70
2022-11-29T17:59:51.984Z,4.80
2022-11-29T18:02:20.143Z,4.80
2022-11-29T18:04:48.239Z,4.70
2022-11-29T18:07:17.188Z,4.70
2022-11-29T18:09:46.847Z,4.60
2022-11-29T18:12:16.377Z,4.40
2022-11-29T18:14:44.423Z,4.40
2022-11-29T18:17:12.558Z,4.30
2022-11-29T18:19:40.582Z,4.40
2022-11-29T18:22:08.548Z,4.20
2022-11-29T18:24:36.559Z,4.20
2022-11-29T18:27:04.763Z,4.20
2022-11-29T18:29:38.972Z,4.10
2022-11-29T18:32:07.397Z,4.10
2022-11-29T18:34:35.344Z,4.10
2022-11-29T18:37:03.343Z,4.10
2022-11-29T18:39:31.364Z,4.10
2022-11-29T18:41:59.308Z,4.00
2022-11-29T18:44:29.420Z,4.00
2022-11-29T18:46:59.106Z,4.10
2022-11-29T18:49:27.094Z,4.10
2022-11-29T18:51:55.123Z,4.10
2022-11-29T18:54:23.127Z,4.20
2022-11-29T18:56:51.966Z,4.20
2022-11-29T18:59:21.993Z,4.10
2022-11-29T19:01:50.293Z,4.20
2022-11-29T19:04:21.651Z,4.20
2022-11-29T19:06:50.220Z,4.20
2022-11-29T19:09:20.916Z,4.20
2022-11-29T19:11:49.751Z,4.10
2022-11-29T19:14:18.688Z,4.10
2022-11-29T19:16:48.587Z,4.10
2022-11-29T19:19:18.604Z,4.20
2022-11-29T19:21:48.427Z,4.20
2022-11-29T19:24:17.929Z,4.10
2022-11-29T19:26:47.947Z,4.20
2022-11-29T19:29:17.799Z,4.20
2022-11-29T19:31:45.833Z,4.20
2022-11-29T19:34:14.114Z,4.20
2022-11-29T19:36:44.487Z,4.20
2022-11-29T19:39:18.423Z,4.10
2022-11-29T19:41:46.868Z,4.10
2022-11-29T19:44:15.209Z,4.10
2022-11-29T19:46:45.558Z,4.10
2022-11-29T19:49:13.967Z,4.10
2022-11-29T19:51:42.252Z,4.00
2022-11-29T19:54:11.852Z,4.00
2022-11-29T19:56:41.642Z,4.10
2022-11-29T19:59:10.000Z,4.10
2022-11-29T20:01:41.910Z,4.10
2022-11-29T20:04:12.460Z,4.00
2022-11-29T20:06:40.871Z,4.00
2022-11-29T20:09:08.981Z,4.00
2022-11-29T20:11:37.002Z,4.00
2022-11-29T20:14:07.467Z,4.00
2022-11-29T20:16:36.704Z,4.00
2022-11-29T20:19:10.691Z,4.00
2022-11-29T20:21:42.462Z,4.00
2022-11-29T20:24:11.422Z,4.00
2022-11-29T20:26:40.712Z,4.10
2022-11-29T20:29:11.650Z,4.00
2022-11-29T20:31:45.990Z,4.10
2022-11-29T20:34:17.529Z,4.10
2022-11-29T20:37:21.423Z,4.10
2022-11-29T20:39:53.348Z,4.10
2022-11-29T20:42:50.984Z,4.00
2022-11-29T20:45:21.065Z,4.00
2022-11-29T20:47:54.243Z,4.00
2022-11-29T20:50:40.191Z,4.00
2022-11-29T20:53:27.546Z,4.00
2022-11-29T20:55:58.116Z,3.90
2022-11-29T20:58:26.477Z,4.00
2022-11-29T21:00:56.749Z,3.90
2022-11-29T21:03:25.446Z,3.90
2022-11-29T21:05:55.480Z,3.90
2022-11-29T21:08:26.467Z,3.90
2022-11-29T21:10:55.180Z,3.90
2022-11-29T21:13:24.281Z,3.90
2022-11-29T21:15:53.068Z,3.90
2022-11-29T21:18:25.062Z,3.90
2022-11-29T21:21:04.217Z,3.90
2022-11-29T21:23:46.180Z,4.00
2022-11-29T21:26:18.327Z,4.00
2022-11-29T21:28:53.962Z,3.90
2022-11-29T21:31:22.580Z,3.80
2022-11-29T21:33:52.383Z,3.80
2022-11-29T21:36:20.409Z,3.90
2022-11-29T21:38:54.757Z,3.90
2022-11-29T21:41:23.537Z,3.90
2022-11-29T21:44:05.927Z,3.80
2022-11-29T21:46:34.501Z,3.80
2022-11-29T21:49:04.081Z,3.70
2022-11-29T21:51:32.074Z,3.70
2022-11-29T21:54:00.087Z,3.60
2022-11-29T21:56:28.342Z,3.70
2022-11-29T21:58:56.274Z,3.80
2022-11-29T22:01:24.527Z,3.80
2022-11-29T22:03:54.536Z,3.80
2022-11-29T22:06:26.045Z,3.70
2022-11-29T22:08:54.114Z,3.70
2022-11-29T22:11:31.708Z,3.70
2022-11-29T22:14:15.897Z,3.70
2022-11-29T22:16:45.881Z,3.80
2022-11-29T22:19:16.601Z,3.80
2022-11-29T22:21:47.343Z,3.90
2022-11-29T22:24:17.596Z,3.90
2022-11-29T22:26:46.190Z,3.70
2022-11-29T22:29:15.291Z,3.60
2022-11-29T22:31:44.870Z,3.50
2022-11-29T22:34:12.920Z,3.60
2022-11-29T22:36:41.923Z,3.50
2022-11-29T22:39:11.562Z,3.50
2022-11-29T22:41:41.016Z,3.30
2022-11-29T22:44:08.988Z,3.30
2022-11-29T22:46:40.484Z,3.10
2022-11-29T22:49:08.506Z,3.00
2022-11-29T22:51:38.935Z,3.00
2022-11-29T22:54:08.580Z,2.80
2022-11-29T22:56:39.992Z,2.80
2022-11-29T22:59:08.036Z,2.90
2022-11-29T23:01:37.705Z,3.00
2022-11-29T23:04:08.147Z,2.90
2022-11-29T23:06:38.941Z,2.80
2022-11-29T23:09:10.627Z,2.90
2022-11-29T23:11:40.329Z,3.00
2022-11-29T23:14:08.497Z,3.10
2022-11-29T23:16:36.660Z,3.00
2022-11-29T23:19:05.122Z,3.00
2022-11-29T23:21:35.048Z,3.00
2022-11-29T23:24:03.591Z,3.00
2022-11-29T23:26:36.356Z,2.90
2022-11-29T23:29:06.041Z,2.90
2022-11-29T23:31:34.301Z,2.80
2022-11-29T23:34:02.960Z,2.70
2022-11-29T23:36:31.045Z,2.80
2022-11-29T23:39:00.403Z,2.80
2022-11-29T23:41:28.582Z,2.60
2022-11-29T23:43:56.654Z,2.60
2022-11-29T23:46:26.665Z,2.60
2022-11-29T23:48:54.746Z,2.70
2022-11-29T23:51:22.961Z,2.40
2022-11-29T23:53:52.967Z,2.30
2022-11-29T23:56:22.071Z,2.30
2022-11-29T23:58:50.423Z,2.50
